sensor_id;sensor_type;location;lat;lon;timestamp;P1;durP1;ratioP1;P2;durP2;ratioP2
11614;SDS011;5863;52.832;4.758;2023-01-16T00:01:48;4.67;;;2.80;;
11614;SDS011;5863;52.832;4.758;2023-01-16T00:04:15;3.90;;;3.00;;
11614;SDS011;5863;52.832;4.758;2023-01-16T00:06:42;4.77;;;3.13;;
11614;SDS011;5863;52.832;4.758;2023-01-16T00:09:09;4.37;;;3.07;;
11614;SDS011;5863;52.832;4.758;2023-01-16T00:11:36;3.30;;;3.00;;
11614;SDS011;5863;52.832;4.758;2023-01-16T00:14:02;4.03;;;3.47;;
11614;SDS011;5863;52.832;4.758;2023-01-16T00:16:31;8.83;;;3.73;;
11614;SDS011;5863;52.832;4.758;2023-01-16T00:18:57;4.60;;;3.60;;
11614;SDS011;5863;52.832;4.758;2023-01-16T00:21:24;3.67;;;3.30;;
11614;SDS011;5863;52.832;4.758;2023-01-16T00:23:52;4.80;;;3.27;;
11614;SDS011;5863;52.832;4.758;2023-01-16T00:26:19;3.40;;;3.10;;
11614;SDS011;5863;52.832;4.758;2023-01-16T00:28:45;5.37;;;3.47;;
11614;SDS011;5863;52.832;4.758;2023-01-16T00:31:12;4.53;;;3.40;;
11614;SDS011;5863;52.832;4.758;2023-01-16T00:33:40;4.53;;;3.50;;
11614;SDS011;5863;52.832;4.758;2023-01-16T00:36:07;3.93;;;3.50;;
11614;SDS011;5863;52.832;4.758;2023-01-16T00:38:34;5.00;;;3.53;;
11614;SDS011;5863;52.832;4.758;2023-01-16T00:41:01;4.37;;;3.13;;
11614;SDS011;5863;52.832;4.758;2023-01-16T00:43:28;4.53;;;3.70;;
11614;SDS011;5863;52.832;4.758;2023-01-16T00:45:54;5.47;;;3.60;;
11614;SDS011;5863;52.832;4.758;2023-01-16T00:48:21;4.37;;;3.80;;
11614;SDS011;5863;52.832;4.758;2023-01-16T00:50:49;4.00;;;3.60;;
11614;SDS011;5863;52.832;4.758;2023-01-16T00:53:16;5.27;;;4.53;;
11614;SDS011;5863;52.832;4.758;2023-01-16T00:55:43;6.00;;;5.37;;
11614;SDS011;5863;52.832;4.758;2023-01-16T00:58:10;5.63;;;5.00;;
11614;SDS011;5863;52.832;4.758;2023-01-16T01:00:38;5.57;;;4.40;;
11614;SDS011;5863;52.832;4.758;2023-01-16T01:03:05;6.10;;;5.20;;
11614;SDS011;5863;52.832;4.758;2023-01-16T01:05:34;5.80;;;5.17;;
11614;SDS011;5863;52.832;4.758;2023-01-16T01:08:03;5.83;;;4.50;;
11614;SDS011;5863;52.832;4.758;2023-01-16T01:10:30;7.40;;;5.23;;
11614;SDS011;5863;52.832;4.758;2023-01-16T01:12:58;5.73;;;5.03;;
11614;SDS011;5863;52.832;4.758;2023-01-16T01:15:24;8.00;;;5.57;;
11614;SDS011;5863;52.832;4.758;2023-01-16T01:17:51;6.07;;;5.30;;
11614;SDS011;5863;52.832;4.758;2023-01-16T01:20:18;8.80;;;5.60;;
11614;SDS011;5863;52.832;4.758;2023-01-16T01:22:44;9.27;;;5.53;;
11614;SDS011;5863;52.832;4.758;2023-01-16T01:25:12;6.67;;;5.60;;
11614;SDS011;5863;52.832;4.758;2023-01-16T01:27:39;8.30;;;5.73;;
11614;SDS011;5863;52.832;4.758;2023-01-16T01:30:06;7.43;;;5.40;;
11614;SDS011;5863;52.832;4.758;2023-01-16T01:32:34;7.40;;;5.73;;
11614;SDS011;5863;52.832;4.758;2023-01-16T01:35:02;8.03;;;5.47;;
11614;SDS011;5863;52.832;4.758;2023-01-16T01:37:29;9.20;;;5.37;;
11614;SDS011;5863;52.832;4.758;2023-01-16T01:39:56;7.00;;;5.33;;
11614;SDS011;5863;52.832;4.758;2023-01-16T01:42:24;7.90;;;5.17;;
11614;SDS011;5863;52.832;4.758;2023-01-16T01:45:11;6.90;;;4.70;;
11614;SDS011;5863;52.832;4.758;2023-01-16T01:47:50;7.40;;;5.20;;
11614;SDS011;5863;52.832;4.758;2023-01-16T01:50:23;4.67;;;4.20;;
11614;SDS011;5863;52.832;4.758;2023-01-16T01:52:56;8.67;;;4.63;;
11614;SDS011;5863;52.832;4.758;2023-01-16T01:55:28;6.10;;;4.13;;
11614;SDS011;5863;52.832;4.758;2023-01-16T01:57:57;6.23;;;4.73;;
11614;SDS011;5863;52.832;4.758;2023-01-16T02:00:26;7.27;;;4.80;;
11614;SDS011;5863;52.832;4.758;2023-01-16T02:02:55;5.97;;;4.13;;
11614;SDS011;5863;52.832;4.758;2023-01-16T02:05:27;9.13;;;4.20;;
11614;SDS011;5863;52.832;4.758;2023-01-16T02:07:56;5.53;;;4.10;;
11614;SDS011;5863;52.832;4.758;2023-01-16T02:10:27;7.33;;;3.70;;
11614;SDS011;5863;52.832;4.758;2023-01-16T02:13:00;4.80;;;3.53;;
11614;SDS011;5863;52.832;4.758;2023-01-16T02:15:29;5.47;;;3.77;;
11614;SDS011;5863;52.832;4.758;2023-01-16T02:17:56;5.40;;;3.33;;
11614;SDS011;5863;52.832;4.758;2023-01-16T02:20:58;4.03;;;3.00;;
11614;SDS011;5863;52.832;4.758;2023-01-16T02:26:42;6.77;;;3.70;;
11614;SDS011;5863;52.832;4.758;2023-01-16T02:29:30;6.90;;;4.50;;
11614;SDS011;5863;52.832;4.758;2023-01-16T02:32:21;7.73;;;4.83;;
11614;SDS011;5863;52.832;4.758;2023-01-16T02:35:00;7.20;;;4.97;;
11614;SDS011;5863;52.832;4.758;2023-01-16T02:37:45;10.17;;;5.90;;
11614;SDS011;5863;52.832;4.758;2023-01-16T02:40:21;10.57;;;6.63;;
11614;SDS011;5863;52.832;4.758;2023-01-16T02:42:59;9.37;;;6.93;;
11614;SDS011;5863;52.832;4.758;2023-01-16T02:45:35;9.40;;;7.83;;
11614;SDS011;5863;52.832;4.758;2023-01-16T02:48:10;7.90;;;7.00;;
11614;SDS011;5863;52.832;4.758;2023-01-16T02:50:49;10.27;;;7.67;;
11614;SDS011;5863;52.832;4.758;2023-01-16T02:53:22;11.47;;;7.77;;
11614;SDS011;5863;52.832;4.758;2023-01-16T02:55:56;9.10;;;7.43;;
11614;SDS011;5863;52.832;4.758;2023-01-16T02:58:28;11.83;;;8.43;;
11614;SDS011;5863;52.832;4.758;2023-01-16T03:00:57;14.63;;;8.50;;
11614;SDS011;5863;52.832;4.758;2023-01-16T03:03:40;13.20;;;9.67;;
11614;SDS011;5863;52.832;4.758;2023-01-16T03:06:13;10.60;;;9.23;;
11614;SDS011;5863;52.832;4.758;2023-01-16T03:08:50;16.17;;;9.37;;
11614;SDS011;5863;52.832;4.758;2023-01-16T03:11:26;17.80;;;9.20;;
11614;SDS011;5863;52.832;4.758;2023-01-16T03:14:02;11.63;;;9.30;;
11614;SDS011;5863;52.832;4.758;2023-01-16T03:16:46;13.93;;;9.63;;
11614;SDS011;5863;52.832;4.758;2023-01-16T03:19:30;13.40;;;9.70;;
11614;SDS011;5863;52.832;4.758;2023-01-16T03:22:10;15.17;;;10.23;;
11614;SDS011;5863;52.832;4.758;2023-01-16T03:24:44;15.83;;;10.10;;
11614;SDS011;5863;52.832;4.758;2023-01-16T03:27:27;15.93;;;10.00;;
11614;SDS011;5863;52.832;4.758;2023-01-16T03:30:05;17.47;;;10.53;;
11614;SDS011;5863;52.832;4.758;2023-01-16T03:32:37;14.70;;;10.27;;
11614;SDS011;5863;52.832;4.758;2023-01-16T03:35:10;14.83;;;9.53;;
11614;SDS011;5863;52.832;4.758;2023-01-16T03:37:44;14.43;;;9.40;;
11614;SDS011;5863;52.832;4.758;2023-01-16T03:40:14;13.17;;;9.63;;
11614;SDS011;5863;52.832;4.758;2023-01-16T03:42:45;12.93;;;9.80;;
11614;SDS011;5863;52.832;4.758;2023-01-16T03:45:18;16.77;;;10.13;;
11614;SDS011;5863;52.832;4.758;2023-01-16T03:47:48;10.53;;;8.57;;
11614;SDS011;5863;52.832;4.758;2023-01-16T03:50:19;11.77;;;8.07;;
11614;SDS011;5863;52.832;4.758;2023-01-16T03:52:50;13.70;;;8.70;;
11614;SDS011;5863;52.832;4.758;2023-01-16T03:55:21;10.00;;;8.30;;
11614;SDS011;5863;52.832;4.758;2023-01-16T03:57:53;10.10;;;7.70;;
11614;SDS011;5863;52.832;4.758;2023-01-16T04:00:23;14.97;;;8.90;;
11614;SDS011;5863;52.832;4.758;2023-01-16T04:02:55;10.90;;;8.33;;
11614;SDS011;5863;52.832;4.758;2023-01-16T04:05:29;11.30;;;8.43;;
11614;SDS011;5863;52.832;4.758;2023-01-16T04:07:57;14.63;;;8.57;;
11614;SDS011;5863;52.832;4.758;2023-01-16T04:10:27;17.73;;;8.80;;
11614;SDS011;5863;52.832;4.758;2023-01-16T04:13:03;11.23;;;8.67;;
11614;SDS011;5863;52.832;4.758;2023-01-16T04:15:34;12.83;;;8.67;;
11614;SDS011;5863;52.832;4.758;2023-01-16T04:18:03;13.13;;;8.63;;
11614;SDS011;5863;52.832;4.758;2023-01-16T04:20:32;10.73;;;8.70;;
11614;SDS011;5863;52.832;4.758;2023-01-16T04:23:00;11.63;;;9.00;;
11614;SDS011;5863;52.832;4.758;2023-01-16T04:25:27;15.33;;;10.27;;
11614;SDS011;5863;52.832;4.758;2023-01-16T04:27:53;13.60;;;9.27;;
11614;SDS011;5863;52.832;4.758;2023-01-16T04:30:20;13.60;;;9.23;;
11614;SDS011;5863;52.832;4.758;2023-01-16T04:32:47;16.80;;;9.93;;
11614;SDS011;5863;52.832;4.758;2023-01-16T04:35:13;13.97;;;9.93;;
11614;SDS011;5863;52.832;4.758;2023-01-16T04:37:41;14.73;;;9.93;;
11614;SDS011;5863;52.832;4.758;2023-01-16T04:40:08;15.93;;;10.77;;
11614;SDS011;5863;52.832;4.758;2023-01-16T04:42:36;16.73;;;10.70;;
11614;SDS011;5863;52.832;4.758;2023-01-16T04:45:03;15.47;;;10.83;;
11614;SDS011;5863;52.832;4.758;2023-01-16T04:47:30;18.00;;;11.10;;
11614;SDS011;5863;52.832;4.758;2023-01-16T04:49:56;14.43;;;10.80;;
11614;SDS011;5863;52.832;4.758;2023-01-16T04:52:23;20.53;;;11.70;;
11614;SDS011;5863;52.832;4.758;2023-01-16T04:54:51;16.33;;;11.53;;
11614;SDS011;5863;52.832;4.758;2023-01-16T04:57:18;17.50;;;11.00;;
11614;SDS011;5863;52.832;4.758;2023-01-16T04:59:44;18.50;;;11.40;;
11614;SDS011;5863;52.832;4.758;2023-01-16T05:02:13;16.67;;;11.07;;
11614;SDS011;5863;52.832;4.758;2023-01-16T05:04:40;15.10;;;11.10;;
11614;SDS011;5863;52.832;4.758;2023-01-16T05:07:06;16.50;;;11.03;;
11614;SDS011;5863;52.832;4.758;2023-01-16T05:09:33;17.80;;;11.80;;
11614;SDS011;5863;52.832;4.758;2023-01-16T05:12:01;15.63;;;10.83;;
11614;SDS011;5863;52.832;4.758;2023-01-16T05:14:28;17.17;;;10.83;;
11614;SDS011;5863;52.832;4.758;2023-01-16T05:16:55;14.80;;;10.23;;
11614;SDS011;5863;52.832;4.758;2023-01-16T05:19:21;12.90;;;10.30;;
11614;SDS011;5863;52.832;4.758;2023-01-16T05:21:48;16.70;;;11.37;;
11614;SDS011;5863;52.832;4.758;2023-01-16T05:24:15;15.93;;;10.97;;
11614;SDS011;5863;52.832;4.758;2023-01-16T05:26:41;14.30;;;10.80;;
11614;SDS011;5863;52.832;4.758;2023-01-16T05:29:09;16.80;;;10.80;;
11614;SDS011;5863;52.832;4.758;2023-01-16T05:31:36;16.67;;;11.50;;
11614;SDS011;5863;52.832;4.758;2023-01-16T05:34:03;17.17;;;11.40;;
11614;SDS011;5863;52.832;4.758;2023-01-16T05:36:29;15.30;;;11.00;;
11614;SDS011;5863;52.832;4.758;2023-01-16T05:38:56;15.73;;;10.70;;
11614;SDS011;5863;52.832;4.758;2023-01-16T05:41:23;16.60;;;10.93;;
11614;SDS011;5863;52.832;4.758;2023-01-16T05:43:49;14.20;;;10.23;;
11614;SDS011;5863;52.832;4.758;2023-01-16T05:46:17;16.90;;;9.90;;
11614;SDS011;5863;52.832;4.758;2023-01-16T05:48:44;13.33;;;9.90;;
11614;SDS011;5863;52.832;4.758;2023-01-16T05:51:13;14.13;;;9.33;;
11614;SDS011;5863;52.832;4.758;2023-01-16T05:53:40;13.27;;;9.47;;
11614;SDS011;5863;52.832;4.758;2023-01-16T05:56:07;11.17;;;9.33;;
11614;SDS011;5863;52.832;4.758;2023-01-16T05:58:35;10.73;;;8.43;;
11614;SDS011;5863;52.832;4.758;2023-01-16T06:01:02;11.50;;;8.23;;
11614;SDS011;5863;52.832;4.758;2023-01-16T06:03:30;11.57;;;7.37;;
11614;SDS011;5863;52.832;4.758;2023-01-16T06:05:56;11.83;;;7.37;;
11614;SDS011;5863;52.832;4.758;2023-01-16T06:08:25;10.33;;;7.70;;
11614;SDS011;5863;52.832;4.758;2023-01-16T06:10:55;13.63;;;7.30;;
11614;SDS011;5863;52.832;4.758;2023-01-16T06:13:22;12.27;;;7.27;;
11614;SDS011;5863;52.832;4.758;2023-01-16T06:15:49;9.60;;;6.73;;
11614;SDS011;5863;52.832;4.758;2023-01-16T06:18:15;12.57;;;7.03;;
11614;SDS011;5863;52.832;4.758;2023-01-16T06:20:43;10.87;;;6.17;;
11614;SDS011;5863;52.832;4.758;2023-01-16T06:23:10;8.77;;;5.20;;
11614;SDS011;5863;52.832;4.758;2023-01-16T06:25:37;10.83;;;5.30;;
11614;SDS011;5863;52.832;4.758;2023-01-16T06:28:04;8.67;;;4.83;;
11614;SDS011;5863;52.832;4.758;2023-01-16T06:30:30;8.17;;;5.07;;
11614;SDS011;5863;52.832;4.758;2023-01-16T06:32:57;6.80;;;4.67;;
11614;SDS011;5863;52.832;4.758;2023-01-16T06:35:24;5.87;;;4.50;;
11614;SDS011;5863;52.832;4.758;2023-01-16T06:37:52;7.53;;;4.27;;
11614;SDS011;5863;52.832;4.758;2023-01-16T06:40:18;8.23;;;4.30;;
11614;SDS011;5863;52.832;4.758;2023-01-16T06:42:46;5.73;;;4.30;;
11614;SDS011;5863;52.832;4.758;2023-01-16T06:45:13;7.77;;;4.13;;
11614;SDS011;5863;52.832;4.758;2023-01-16T06:47:39;7.33;;;3.90;;
11614;SDS011;5863;52.832;4.758;2023-01-16T06:50:07;9.70;;;4.13;;
11614;SDS011;5863;52.832;4.758;2023-01-16T06:52:34;9.87;;;4.43;;
11614;SDS011;5863;52.832;4.758;2023-01-16T06:55:04;9.13;;;3.50;;
11614;SDS011;5863;52.832;4.758;2023-01-16T06:57:31;5.87;;;3.00;;
11614;SDS011;5863;52.832;4.758;2023-01-16T07:00:00;7.20;;;3.30;;
11614;SDS011;5863;52.832;4.758;2023-01-16T07:02:28;8.83;;;3.50;;
11614;SDS011;5863;52.832;4.758;2023-01-16T07:04:55;7.33;;;3.50;;
11614;SDS011;5863;52.832;4.758;2023-01-16T07:07:22;7.17;;;3.00;;
11614;SDS011;5863;52.832;4.758;2023-01-16T07:09:49;6.43;;;3.13;;
11614;SDS011;5863;52.832;4.758;2023-01-16T07:12:16;3.93;;;2.57;;
11614;SDS011;5863;52.832;4.758;2023-01-16T07:14:43;6.53;;;2.47;;
11614;SDS011;5863;52.832;4.758;2023-01-16T07:17:27;4.57;;;2.57;;
11614;SDS011;5863;52.832;4.758;2023-01-16T07:20:11;5.53;;;2.47;;
11614;SDS011;5863;52.832;4.758;2023-01-16T07:22:55;4.87;;;2.40;;
11614;SDS011;5863;52.832;4.758;2023-01-16T07:25:24;4.30;;;2.10;;
11614;SDS011;5863;52.832;4.758;2023-01-16T07:27:56;7.40;;;2.70;;
11614;SDS011;5863;52.832;4.758;2023-01-16T07:30:23;3.60;;;2.00;;
11614;SDS011;5863;52.832;4.758;2023-01-16T07:32:50;5.83;;;2.60;;
11614;SDS011;5863;52.832;4.758;2023-01-16T07:35:16;5.07;;;2.43;;
11614;SDS011;5863;52.832;4.758;2023-01-16T07:37:43;6.57;;;2.80;;
11614;SDS011;5863;52.832;4.758;2023-01-16T07:40:11;6.03;;;2.33;;
11614;SDS011;5863;52.832;4.758;2023-01-16T07:42:38;5.40;;;2.30;;
11614;SDS011;5863;52.832;4.758;2023-01-16T07:45:07;5.97;;;2.23;;
11614;SDS011;5863;52.832;4.758;2023-01-16T07:47:34;4.20;;;2.60;;
11614;SDS011;5863;52.832;4.758;2023-01-16T07:50:01;5.83;;;2.63;;
11614;SDS011;5863;52.832;4.758;2023-01-16T07:52:28;6.13;;;2.50;;
11614;SDS011;5863;52.832;4.758;2023-01-16T07:54:54;4.60;;;2.60;;
11614;SDS011;5863;52.832;4.758;2023-01-16T07:57:21;4.63;;;2.67;;
11614;SDS011;5863;52.832;4.758;2023-01-16T07:59:49;4.10;;;2.30;;
11614;SDS011;5863;52.832;4.758;2023-01-16T08:02:17;3.77;;;2.37;;
11614;SDS011;5863;52.832;4.758;2023-01-16T08:04:44;7.20;;;2.90;;
11614;SDS011;5863;52.832;4.758;2023-01-16T08:07:11;4.10;;;2.20;;
11614;SDS011;5863;52.832;4.758;2023-01-16T08:09:38;7.73;;;2.40;;
11614;SDS011;5863;52.832;4.758;2023-01-16T08:12:05;5.20;;;2.20;;
11614;SDS011;5863;52.832;4.758;2023-01-16T08:14:31;11.10;;;2.63;;
11614;SDS011;5863;52.832;4.758;2023-01-16T08:16:58;6.53;;;2.40;;
11614;SDS011;5863;52.832;4.758;2023-01-16T08:19:26;6.67;;;2.20;;
11614;SDS011;5863;52.832;4.758;2023-01-16T08:21:53;4.47;;;2.20;;
11614;SDS011;5863;52.832;4.758;2023-01-16T08:24:20;8.27;;;2.50;;
11614;SDS011;5863;52.832;4.758;2023-01-16T08:26:48;4.53;;;2.07;;
11614;SDS011;5863;52.832;4.758;2023-01-16T08:29:15;5.00;;;2.00;;
11614;SDS011;5863;52.832;4.758;2023-01-16T08:31:42;2.50;;;1.87;;
11614;SDS011;5863;52.832;4.758;2023-01-16T08:34:09;2.50;;;1.90;;
11614;SDS011;5863;52.832;4.758;2023-01-16T08:36:37;3.60;;;1.70;;
11614;SDS011;5863;52.832;4.758;2023-01-16T08:39:04;2.73;;;1.77;;
11614;SDS011;5863;52.832;4.758;2023-01-16T08:41:31;6.17;;;2.10;;
11614;SDS011;5863;52.832;4.758;2023-01-16T08:44:15;5.27;;;1.80;;
11614;SDS011;5863;52.832;4.758;2023-01-16T08:47:00;3.60;;;1.80;;
11614;SDS011;5863;52.832;4.758;2023-01-16T08:49:47;4.57;;;1.87;;
11614;SDS011;5863;52.832;4.758;2023-01-16T08:52:34;4.03;;;2.10;;
11614;SDS011;5863;52.832;4.758;2023-01-16T08:55:01;5.37;;;2.00;;
11614;SDS011;5863;52.832;4.758;2023-01-16T08:57:28;3.90;;;1.67;;
11614;SDS011;5863;52.832;4.758;2023-01-16T08:59:55;2.37;;;1.70;;
11614;SDS011;5863;52.832;4.758;2023-01-16T09:02:22;2.87;;;1.60;;
11614;SDS011;5863;52.832;4.758;2023-01-16T09:04:50;3.47;;;1.50;;
11614;SDS011;5863;52.832;4.758;2023-01-16T09:07:16;4.70;;;1.90;;
11614;SDS011;5863;52.832;4.758;2023-01-16T09:09:45;6.20;;;1.50;;
11614;SDS011;5863;52.832;4.758;2023-01-16T09:12:12;4.10;;;1.83;;
11614;SDS011;5863;52.832;4.758;2023-01-16T09:14:57;7.10;;;1.77;;
11614;SDS011;5863;52.832;4.758;2023-01-16T09:17:25;1.97;;;1.40;;
11614;SDS011;5863;52.832;4.758;2023-01-16T09:19:52;2.40;;;1.50;;
11614;SDS011;5863;52.832;4.758;2023-01-16T09:22:19;2.07;;;1.47;;
11614;SDS011;5863;52.832;4.758;2023-01-16T09:24:47;3.47;;;1.60;;
11614;SDS011;5863;52.832;4.758;2023-01-16T09:27:14;3.47;;;1.60;;
11614;SDS011;5863;52.832;4.758;2023-01-16T09:29:43;3.10;;;1.17;;
11614;SDS011;5863;52.832;4.758;2023-01-16T09:32:10;4.00;;;1.40;;
11614;SDS011;5863;52.832;4.758;2023-01-16T09:34:36;2.30;;;1.30;;
11614;SDS011;5863;52.832;4.758;2023-01-16T09:37:04;3.00;;;1.57;;
11614;SDS011;5863;52.832;4.758;2023-01-16T09:39:31;2.60;;;1.53;;
11614;SDS011;5863;52.832;4.758;2023-01-16T09:42:04;4.07;;;1.63;;
11614;SDS011;5863;52.832;4.758;2023-01-16T09:45:02;3.07;;;1.23;;
11614;SDS011;5863;52.832;4.758;2023-01-16T09:47:32;1.30;;;0.97;;
11614;SDS011;5863;52.832;4.758;2023-01-16T09:50:02;1.57;;;1.40;;
11614;SDS011;5863;52.832;4.758;2023-01-16T09:52:33;1.73;;;1.40;;
11614;SDS011;5863;52.832;4.758;2023-01-16T09:55:22;2.10;;;1.40;;
11614;SDS011;5863;52.832;4.758;2023-01-16T09:58:13;3.70;;;1.70;;
11614;SDS011;5863;52.832;4.758;2023-01-16T10:01:00;1.70;;;1.50;;
11614;SDS011;5863;52.832;4.758;2023-01-16T10:03:27;1.53;;;1.43;;
11614;SDS011;5863;52.832;4.758;2023-01-16T10:05:55;2.30;;;1.67;;
11614;SDS011;5863;52.832;4.758;2023-01-16T10:08:29;1.60;;;1.50;;
11614;SDS011;5863;52.832;4.758;2023-01-16T10:11:06;1.73;;;1.63;;
11614;SDS011;5863;52.832;4.758;2023-01-16T10:16:51;2.30;;;1.70;;
11614;SDS011;5863;52.832;4.758;2023-01-16T10:19:29;4.43;;;2.20;;
11614;SDS011;5863;52.832;4.758;2023-01-16T10:22:09;3.63;;;2.67;;
11614;SDS011;5863;52.832;4.758;2023-01-16T10:24:51;3.03;;;2.50;;
11614;SDS011;5863;52.832;4.758;2023-01-16T10:27:33;2.50;;;2.30;;
11614;SDS011;5863;52.832;4.758;2023-01-16T10:30:07;2.47;;;2.20;;
11614;SDS011;5863;52.832;4.758;2023-01-16T10:32:42;2.63;;;2.43;;
11614;SDS011;5863;52.832;4.758;2023-01-16T10:35:12;2.53;;;2.30;;
11614;SDS011;5863;52.832;4.758;2023-01-16T10:37:43;3.03;;;2.50;;
11614;SDS011;5863;52.832;4.758;2023-01-16T10:40:13;3.37;;;2.73;;
11614;SDS011;5863;52.832;4.758;2023-01-16T10:42:43;4.93;;;2.53;;
11614;SDS011;5863;52.832;4.758;2023-01-16T10:45:33;2.50;;;2.30;;
11614;SDS011;5863;52.832;4.758;2023-01-16T10:48:19;3.10;;;2.57;;
11614;SDS011;5863;52.832;4.758;2023-01-16T10:51:03;2.97;;;2.60;;
11614;SDS011;5863;52.832;4.758;2023-01-16T10:53:34;3.23;;;2.27;;
11614;SDS011;5863;52.832;4.758;2023-01-16T10:56:01;3.20;;;2.70;;
11614;SDS011;5863;52.832;4.758;2023-01-16T10:58:30;4.37;;;2.97;;
11614;SDS011;5863;52.832;4.758;2023-01-16T11:01:01;3.13;;;2.83;;
11614;SDS011;5863;52.832;4.758;2023-01-16T11:03:33;2.73;;;2.50;;
11614;SDS011;5863;52.832;4.758;2023-01-16T11:06:05;4.50;;;2.43;;
11614;SDS011;5863;52.832;4.758;2023-01-16T11:08:34;2.63;;;2.17;;
11614;SDS011;5863;52.832;4.758;2023-01-16T11:11:03;3.43;;;2.33;;
11614;SDS011;5863;52.832;4.758;2023-01-16T11:13:50;2.13;;;1.97;;
11614;SDS011;5863;52.832;4.758;2023-01-16T11:16:33;2.33;;;2.13;;
11614;SDS011;5863;52.832;4.758;2023-01-16T11:19:19;2.70;;;2.13;;
11614;SDS011;5863;52.832;4.758;2023-01-16T11:21:49;2.23;;;2.10;;
11614;SDS011;5863;52.832;4.758;2023-01-16T11:24:18;3.03;;;2.30;;
11614;SDS011;5863;52.832;4.758;2023-01-16T11:26:48;2.30;;;2.10;;
11614;SDS011;5863;52.832;4.758;2023-01-16T11:29:17;2.27;;;2.13;;
11614;SDS011;5863;52.832;4.758;2023-01-16T11:31:52;2.97;;;2.20;;
11614;SDS011;5863;52.832;4.758;2023-01-16T11:34:21;2.23;;;2.03;;
11614;SDS011;5863;52.832;4.758;2023-01-16T11:36:51;2.10;;;2.00;;
11614;SDS011;5863;52.832;4.758;2023-01-16T11:39:20;3.97;;;2.23;;
11614;SDS011;5863;52.832;4.758;2023-01-16T11:41:51;2.73;;;2.33;;
11614;SDS011;5863;52.832;4.758;2023-01-16T11:44:20;2.53;;;2.23;;
11614;SDS011;5863;52.832;4.758;2023-01-16T11:47:09;3.33;;;2.37;;
11614;SDS011;5863;52.832;4.758;2023-01-16T11:49:39;2.10;;;2.00;;
11614;SDS011;5863;52.832;4.758;2023-01-16T11:52:12;2.30;;;2.10;;
11614;SDS011;5863;52.832;4.758;2023-01-16T11:54:54;3.30;;;2.20;;
11614;SDS011;5863;52.832;4.758;2023-01-16T11:57:36;2.43;;;2.10;;
11614;SDS011;5863;52.832;4.758;2023-01-16T12:00:15;2.40;;;2.10;;
11614;SDS011;5863;52.832;4.758;2023-01-16T12:03:08;2.20;;;2.00;;
11614;SDS011;5863;52.832;4.758;2023-01-16T12:05:52;2.40;;;2.20;;
11614;SDS011;5863;52.832;4.758;2023-01-16T12:08:33;2.10;;;2.00;;
11614;SDS011;5863;52.832;4.758;2023-01-16T12:11:22;2.50;;;2.30;;
11614;SDS011;5863;52.832;4.758;2023-01-16T12:13:55;2.90;;;2.40;;
11614;SDS011;5863;52.832;4.758;2023-01-16T12:16:52;3.13;;;2.70;;
11614;SDS011;5863;52.832;4.758;2023-01-16T12:19:52;2.60;;;2.37;;
11614;SDS011;5863;52.832;4.758;2023-01-16T12:22:31;2.23;;;2.13;;
11614;SDS011;5863;52.832;4.758;2023-01-16T12:25:18;2.70;;;2.43;;
11614;SDS011;5863;52.832;4.758;2023-01-16T12:27:56;3.57;;;2.17;;
11614;SDS011;5863;52.832;4.758;2023-01-16T12:30:33;2.50;;;2.30;;
11614;SDS011;5863;52.832;4.758;2023-01-16T12:33:13;2.63;;;2.17;;
11614;SDS011;5863;52.832;4.758;2023-01-16T12:35:54;1.83;;;1.73;;
11614;SDS011;5863;52.832;4.758;2023-01-16T12:38:27;2.20;;;1.40;;
11614;SDS011;5863;52.832;4.758;2023-01-16T12:41:11;1.10;;;1.10;;
11614;SDS011;5863;52.832;4.758;2023-01-16T12:44:05;0.90;;;0.90;;
11614;SDS011;5863;52.832;4.758;2023-01-16T12:46:48;2.40;;;1.23;;
11614;SDS011;5863;52.832;4.758;2023-01-16T12:49:35;1.20;;;1.10;;
11614;SDS011;5863;52.832;4.758;2023-01-16T12:52:19;2.83;;;1.40;;
11614;SDS011;5863;52.832;4.758;2023-01-16T12:54:59;1.63;;;1.03;;
11614;SDS011;5863;52.832;4.758;2023-01-16T12:57:42;1.30;;;1.00;;
11614;SDS011;5863;52.832;4.758;2023-01-16T13:00:19;1.00;;;0.90;;
11614;SDS011;5863;52.832;4.758;2023-01-16T13:02:51;0.87;;;0.70;;
11614;SDS011;5863;52.832;4.758;2023-01-16T13:05:22;1.13;;;0.87;;
11614;SDS011;5863;52.832;4.758;2023-01-16T13:07:54;1.00;;;0.90;;
11614;SDS011;5863;52.832;4.758;2023-01-16T13:10:24;0.97;;;0.90;;
11614;SDS011;5863;52.832;4.758;2023-01-16T13:13:14;1.00;;;1.00;;
11614;SDS011;5863;52.832;4.758;2023-01-16T13:15:48;1.10;;;1.03;;
11614;SDS011;5863;52.832;4.758;2023-01-16T13:18:20;0.77;;;0.77;;
11614;SDS011;5863;52.832;4.758;2023-01-16T13:20:51;1.30;;;1.20;;
11614;SDS011;5863;52.832;4.758;2023-01-16T13:23:23;1.27;;;1.10;;
11614;SDS011;5863;52.832;4.758;2023-01-16T13:25:53;1.00;;;0.97;;
11614;SDS011;5863;52.832;4.758;2023-01-16T13:28:25;0.87;;;0.87;;
11614;SDS011;5863;52.832;4.758;2023-01-16T13:30:57;1.20;;;1.10;;
11614;SDS011;5863;52.832;4.758;2023-01-16T13:33:28;1.00;;;1.00;;
11614;SDS011;5863;52.832;4.758;2023-01-16T13:35:59;1.53;;;1.10;;
11614;SDS011;5863;52.832;4.758;2023-01-16T13:38:38;1.40;;;1.30;;
11614;SDS011;5863;52.832;4.758;2023-01-16T13:41:18;1.43;;;1.20;;
11614;SDS011;5863;52.832;4.758;2023-01-16T13:43:50;1.20;;;1.07;;
11614;SDS011;5863;52.832;4.758;2023-01-16T13:46:40;1.20;;;1.10;;
11614;SDS011;5863;52.832;4.758;2023-01-16T13:49:11;0.90;;;0.80;;
11614;SDS011;5863;52.832;4.758;2023-01-16T13:51:43;1.07;;;1.07;;
11614;SDS011;5863;52.832;4.758;2023-01-16T13:54:13;1.00;;;1.00;;
11614;SDS011;5863;52.832;4.758;2023-01-16T13:56:47;1.00;;;1.00;;
11614;SDS011;5863;52.832;4.758;2023-01-16T13:59:27;1.00;;;0.90;;
11614;SDS011;5863;52.832;4.758;2023-01-16T14:02:02;0.90;;;0.90;;
11614;SDS011;5863;52.832;4.758;2023-01-16T14:07:51;1.07;;;1.03;;
11614;SDS011;5863;52.832;4.758;2023-01-16T14:11:03;1.27;;;1.20;;
11614;SDS011;5863;52.832;4.758;2023-01-16T14:13:40;1.20;;;1.17;;
11614;SDS011;5863;52.832;4.758;2023-01-16T14:16:29;1.00;;;1.00;;
11614;SDS011;5863;52.832;4.758;2023-01-16T14:18:57;1.30;;;1.20;;
11614;SDS011;5863;52.832;4.758;2023-01-16T14:21:26;1.03;;;1.03;;
11614;SDS011;5863;52.832;4.758;2023-01-16T14:24:11;1.30;;;1.30;;
11614;SDS011;5863;52.832;4.758;2023-01-16T14:26:43;1.03;;;1.00;;
11614;SDS011;5863;52.832;4.758;2023-01-16T14:29:17;1.70;;;1.40;;
11614;SDS011;5863;52.832;4.758;2023-01-16T14:31:55;1.40;;;1.30;;
11614;SDS011;5863;52.832;4.758;2023-01-16T14:34:26;1.57;;;1.30;;
11614;SDS011;5863;52.832;4.758;2023-01-16T14:36:58;1.67;;;1.57;;
11614;SDS011;5863;52.832;4.758;2023-01-16T14:39:29;1.20;;;1.20;;
11614;SDS011;5863;52.832;4.758;2023-01-16T14:42:02;1.27;;;1.17;;
11614;SDS011;5863;52.832;4.758;2023-01-16T14:48:12;0.90;;;0.90;;
11614;SDS011;5863;52.832;4.758;2023-01-16T14:51:14;1.27;;;1.20;;
11614;SDS011;5863;52.832;4.758;2023-01-16T14:54:03;1.10;;;1.00;;
11614;SDS011;5863;52.832;4.758;2023-01-16T14:56:51;2.77;;;1.37;;
11614;SDS011;5863;52.832;4.758;2023-01-16T14:59:39;1.00;;;1.00;;
11614;SDS011;5863;52.832;4.758;2023-01-16T15:04:56;1.80;;;1.20;;
11614;SDS011;5863;52.832;4.758;2023-01-16T15:07:28;2.17;;;1.47;;
11614;SDS011;5863;52.832;4.758;2023-01-16T15:10:02;1.60;;;1.50;;
11614;SDS011;5863;52.832;4.758;2023-01-16T15:12:36;1.70;;;1.60;;
11614;SDS011;5863;52.832;4.758;2023-01-16T15:15:15;1.70;;;1.60;;
11614;SDS011;5863;52.832;4.758;2023-01-16T15:17:45;2.40;;;1.80;;
11614;SDS011;5863;52.832;4.758;2023-01-16T15:20:32;1.73;;;1.63;;
11614;SDS011;5863;52.832;4.758;2023-01-16T15:23:21;1.67;;;1.57;;
11614;SDS011;5863;52.832;4.758;2023-01-16T15:25:53;2.10;;;2.00;;
11614;SDS011;5863;52.832;4.758;2023-01-16T15:28:46;1.90;;;1.80;;
11614;SDS011;5863;52.832;4.758;2023-01-16T15:31:22;1.90;;;1.70;;
11614;SDS011;5863;52.832;4.758;2023-01-16T15:33:57;2.17;;;1.97;;
11614;SDS011;5863;52.832;4.758;2023-01-16T15:36:26;3.87;;;2.63;;
11614;SDS011;5863;52.832;4.758;2023-01-16T15:38:58;2.30;;;2.10;;
11614;SDS011;5863;52.832;4.758;2023-01-16T15:41:26;2.33;;;2.13;;
11614;SDS011;5863;52.832;4.758;2023-01-16T15:44:13;2.20;;;2.00;;
11614;SDS011;5863;52.832;4.758;2023-01-16T15:47:20;4.17;;;3.27;;